Time;durP1;ratioP1;P1;durP2;ratioP2;P2;SDS_P1;SDS_P2;PMS_P1;PMS_P2;Temp;Humidity;BMP_temperature;BMP_pressure;BME280_temperature;BME280_humidity;BME280_pressure;Samples;Min_cycle;Max_cycle;Signal;HPM_P1;HPM_P2
2022/05/16 00:00:15;;;;;;;9.43;5.90;;;;;;;12.35;100.00;96583.25;5070156;28;20436;-75
2022/05/16 00:02:43;;;;;;;6.53;5.93;;;;;;;12.55;100.00;96566.44;5070328;28;20450;-76
2022/05/16 00:05:10;;;;;;;7.27;6.43;;;;;;;12.34;100.00;96563.94;5082958;28;20495;-76
2022/05/16 00:07:37;;;;;;;11.10;6.03;;;;;;;12.28;100.00;96545.91;5086005;28;20420;-75
2022/05/16 00:10:05;;;;;;;8.80;6.23;;;;;;;12.46;100.00;96570.34;5053233;28;20436;-75
2022/05/16 00:12:32;;;;;;;8.97;6.93;;;;;;;12.40;100.00;96581.16;5069559;28;20522;-75
2022/05/16 00:14:59;;;;;;;7.33;6.70;;;;;;;12.36;100.00;96577.63;5071108;28;20460;-76
2022/05/16 00:17:26;;;;;;;7.57;6.33;;;;;;;12.02;100.00;96560.28;5089309;28;20456;-76
2022/05/16 00:19:53;;;;;;;13.40;7.17;;;;;;;12.25;100.00;96549.22;5060472;28;20471;-76
2022/05/16 00:22:19;;;;;;;8.00;6.33;;;;;;;12.09;100.00;96541.16;5069773;28;20510;-75
2022/05/16 00:24:46;;;;;;;5.87;5.30;;;;;;;12.51;100.00;96580.72;5069768;28;21002;-76
2022/05/16 00:27:13;;;;;;;10.93;6.80;;;;;;;11.95;100.00;96543.34;5053006;28;21012;-75
2022/05/16 00:29:40;;;;;;;6.93;6.27;;;;;;;12.18;100.00;96543.72;5069813;28;20532;-76
2022/05/16 00:32:07;;;;;;;9.30;6.63;;;;;;;11.97;100.00;96562.34;5070974;28;20595;-75
2022/05/16 00:34:34;;;;;;;6.53;5.87;;;;;;;12.14;100.00;96572.75;5069599;28;20530;-75
2022/05/16 00:37:01;;;;;;;7.83;6.93;;;;;;;11.82;100.00;96539.91;5089439;28;20445;-75
2022/05/16 00:39:29;;;;;;;7.43;6.83;;;;;;;11.65;100.00;96522.28;5073467;28;20462;-75
2022/05/16 00:41:56;;;;;;;7.27;6.30;;;;;;;11.63;100.00;96502.53;5089817;28;20447;-75
2022/05/16 00:44:24;;;;;;;11.40;6.93;;;;;;;11.80;100.00;96558.00;5089913;28;20854;-75
2022/05/16 00:46:51;;;;;;;12.10;7.00;;;;;;;11.84;100.00;96535.81;5089776;28;20484;-75
2022/05/16 00:49:31;;;;;;;9.97;6.10;;;;;;;11.95;100.00;96552.06;5075659;28;20781;-75
2022/05/16 00:52:10;;;;;;;10.17;7.07;;;;;;;11.65;100.00;96516.22;5078860;28;20524;-75
2022/05/16 00:54:41;;;;;;;8.03;6.40;;;;;;;11.78;100.00;96553.00;5089537;28;20566;-75
2022/05/16 00:57:14;;;;;;;7.83;7.03;;;;;;;11.94;100.00;96557.69;5073371;28;20439;-75
2022/05/16 00:59:47;;;;;;;9.20;7.10;;;;;;;11.84;100.00;96557.00;5074095;28;20473;-75
2022/05/16 01:05:06;;;;;;;10.37;6.63;;;;;;;11.80;100.00;96552.72;5070771;28;20462;-75
2022/05/16 01:07:37;;;;;;;11.17;6.93;;;;;;;11.34;100.00;96512.16;5074188;28;21006;-75
2022/05/16 01:10:07;;;;;;;8.33;7.27;;;;;;;11.52;100.00;96555.13;5091071;28;20514;-75
2022/05/16 01:12:37;;;;;;;12.53;7.23;;;;;;;11.54;100.00;96547.63;5089588;28;20515;-75
2022/05/16 01:15:12;;;;;;;9.97;7.23;;;;;;;11.28;100.00;96557.69;5076275;28;20907;-75
2022/05/16 01:17:39;;;;;;;13.93;6.67;;;;;;;11.17;100.00;96533.47;5069641;28;20443;-75
2022/05/16 01:20:08;;;;;;;9.77;6.93;;;;;;;11.38;100.00;96558.06;5073033;28;20428;-75
2022/05/16 01:22:41;;;;;;;13.03;7.10;;;;;;;11.30;100.00;96534.31;5074530;28;20861;-75
2022/05/16 01:25:11;;;;;;;10.00;5.87;;;;;;;11.43;100.00;96555.22;5073066;28;20522;-75
2022/05/16 01:27:53;;;;;;;11.03;6.33;;;;;;;11.03;100.00;96512.59;5084102;28;20470;-75
2022/05/16 01:30:23;;;;;;;16.40;6.93;;;;;;;10.98;100.00;96518.09;5093072;28;20458;-75
2022/05/16 01:32:50;;;;;;;11.70;7.03;;;;;;;11.34;100.00;96548.44;5093187;28;20431;-75
2022/05/16 01:35:21;;;;;;;10.20;6.90;;;;;;;10.97;100.00;96499.91;5075209;28;20461;-75
2022/05/16 01:40:34;;;;;;;13.93;5.80;;;;;;;11.49;100.00;96537.25;5092715;28;20974;-75
2022/05/16 01:43:01;;;;;;;9.80;6.90;;;;;;;11.23;100.00;96526.91;5092582;28;20523;-75
2022/05/16 01:45:29;;;;;;;10.87;6.93;;;;;;;11.13;100.00;96520.13;5076024;28;20442;-75
2022/05/16 01:47:56;;;;;;;12.47;7.47;;;;;;;11.11;100.00;96534.78;5092555;28;21124;-75
2022/05/16 01:50:23;;;;;;;9.47;5.90;;;;;;;11.29;100.00;96538.06;5092481;28;20879;-75
2022/05/16 01:52:49;;;;;;;12.30;6.23;;;;;;;11.06;100.00;96503.22;5075601;28;20526;-75
2022/05/16 01:55:17;;;;;;;8.33;6.00;;;;;;;10.58;100.00;96463.00;5075673;28;20551;-75
2022/05/16 01:57:45;;;;;;;11.30;8.00;;;;;;;11.08;100.00;96533.53;5092307;28;20851;-75
2022/05/16 02:00:14;;;;;;;10.23;7.20;;;;;;;10.94;100.00;96535.69;5075523;28;20523;-75
2022/05/16 02:02:42;;;;;;;9.97;6.50;;;;;;;10.88;100.00;96497.31;5074121;28;20476;-75
2022/05/16 02:05:15;;;;;;;9.77;6.90;;;;;;;11.09;100.00;96539.63;5072023;28;20550;-75
2022/05/16 02:07:43;;;;;;;9.43;7.43;;;;;;;10.85;100.00;96542.94;5078675;28;20426;-75
2022/05/16 02:10:11;;;;;;;9.23;6.43;;;;;;;10.37;100.00;96509.78;5075340;28;20436;-75
2022/05/16 02:12:38;;;;;;;7.27;5.83;;;;;;;10.38;100.00;96479.59;5075079;28;20495;-75
2022/05/16 02:15:08;;;;;;;11.87;6.97;;;;;;;10.98;100.00;96531.31;5093212;28;20574;-75
2022/05/16 02:17:35;;;;;;;7.17;6.47;;;;;;;10.90;100.00;96500.41;5091859;28;20444;-75
2022/05/16 02:20:02;;;;;;;8.40;6.30;;;;;;;10.68;100.00;96476.91;5075379;28;20435;-75
2022/05/16 02:25:15;;;;;;;8.70;6.80;;;;;;;9.96;100.00;96434.59;5076066;28;20533;-75
2022/05/16 02:27:47;;;;;;;9.03;6.70;;;;;;;10.79;100.00;96515.09;5071498;28;21315;-75
2022/05/16 02:30:14;;;;;;;8.50;6.70;;;;;;;10.57;100.00;96509.03;5071413;28;20437;-75
2022/05/16 02:32:41;;;;;;;8.23;6.90;;;;;;;10.38;100.00;96513.97;5071372;28;20474;-75
2022/05/16 02:35:08;;;;;;;9.60;7.40;;;;;;;9.76;100.00;96404.41;5071236;28;20461;-75
2022/05/16 02:37:36;;;;;;;7.93;6.77;;;;;;;10.43;100.00;96484.72;5071291;28;20515;-75
2022/05/16 02:40:05;;;;;;;7.53;6.30;;;;;;;10.81;100.00;96507.63;5072552;28;20920;-75
2022/05/16 02:42:32;;;;;;;8.13;7.10;;;;;;;10.32;100.00;96496.75;5054792;28;20542;-75
2022/05/16 02:44:58;;;;;;;8.93;6.70;;;;;;;10.00;100.00;96461.13;5071115;28;20436;-75
2022/05/16 02:47:25;;;;;;;7.77;7.07;;;;;;;9.98;100.00;96477.31;5072383;28;20463;-75
2022/05/16 02:49:52;;;;;;;7.93;7.00;;;;;;;9.94;100.00;96465.06;5072412;28;20436;-75
2022/05/16 02:52:19;;;;;;;8.70;7.03;;;;;;;10.30;100.00;96505.00;5071017;28;20527;-75
2022/05/16 02:54:45;;;;;;;7.97;7.17;;;;;;;10.10;100.00;96502.28;5070716;28;20527;-75
2022/05/16 02:57:12;;;;;;;12.83;6.77;;;;;;;10.29;100.00;96500.03;5070950;28;20432;-75
2022/05/16 02:59:40;;;;;;;10.70;7.90;;;;;;;10.34;100.00;96499.84;5072060;28;20443;-75
2022/05/16 03:02:08;;;;;;;9.60;6.90;;;;;;;10.22;100.00;96468.06;5070719;28;20440;-75
2022/05/16 03:04:37;;;;;;;7.73;6.33;;;;;;;10.50;100.00;96514.06;5071062;28;20850;-75
2022/05/16 03:07:04;;;;;;;9.20;7.33;;;;;;;10.44;100.00;96515.34;5071983;28;20863;-75
2022/05/16 03:09:32;;;;;;;8.57;7.60;;;;;;;10.28;100.00;96522.25;5087604;28;20515;-75
2022/05/16 03:12:00;;;;;;;13.60;7.57;;;;;;;9.97;100.00;96496.13;5070318;28;20503;-75
2022/05/16 03:14:27;;;;;;;8.97;7.00;;;;;;;9.97;100.00;96519.88;5078569;28;21021;-75
2022/05/16 03:16:54;;;;;;;7.27;6.57;;;;;;;10.22;100.00;96518.25;5059320;28;20501;-75
2022/05/16 03:19:21;;;;;;;8.20;6.67;;;;;;;10.25;100.00;96504.41;5071793;28;20428;-75
2022/05/16 03:21:48;;;;;;;9.23;6.40;;;;;;;10.22;100.00;96508.47;5071560;28;20869;-75
2022/05/16 03:24:14;;;;;;;7.50;6.70;;;;;;;9.87;100.00;96475.34;5090568;28;20468;-75
2022/05/16 03:26:42;;;;;;;7.20;6.53;;;;;;;9.86;100.00;96519.44;5072119;28;20431;-75
2022/05/16 03:29:13;;;;;;;7.70;7.03;;;;;;;9.79;100.00;96521.81;5070454;28;20542;-75
2022/05/16 03:31:42;;;;;;;8.57;7.63;;;;;;;9.37;100.00;96500.50;5072726;28;20456;-75
2022/05/16 03:34:11;;;;;;;7.97;7.27;;;;;;;9.80;100.00;96514.69;5073815;28;20442;-75
2022/05/16 03:36:39;;;;;;;7.03;6.23;;;;;;;10.13;100.00;96512.19;5090253;28;20459;-75
2022/05/16 03:41:52;;;;;;;7.60;6.87;;;;;;;9.34;100.00;96479.22;5089840;28;20547;-75
2022/05/16 03:44:19;;;;;;;11.67;7.77;;;;;;;9.76;100.00;96511.91;5073503;28;20436;-75
2022/05/16 03:46:46;;;;;;;7.43;6.70;;;;;;;9.85;100.00;96490.72;5073546;28;20445;-75
2022/05/16 03:49:13;;;;;;;7.50;6.90;;;;;;;10.01;100.00;96513.63;5090142;28;20450;-75
2022/05/16 03:51:40;;;;;;;8.87;7.50;;;;;;;9.80;100.00;96515.44;5073280;28;21053;-75
2022/05/16 03:54:07;;;;;;;7.47;6.77;;;;;;;10.23;100.00;96514.50;5090115;28;20526;-75
2022/05/16 03:56:34;;;;;;;11.50;7.47;;;;;;;10.10;100.00;96473.22;5091336;28;20550;-75
2022/05/16 03:59:01;;;;;;;10.07;7.23;;;;;;;10.33;100.00;96496.44;5090953;28;20532;-75
2022/05/16 04:01:28;;;;;;;7.20;6.47;;;;;;;10.07;100.00;96472.00;5069815;28;20487;-75
2022/05/16 04:03:55;;;;;;;11.57;7.20;;;;;;;10.07;100.00;96474.63;5069755;28;20469;-75
2022/05/16 04:06:22;;;;;;;8.17;7.33;;;;;;;9.72;100.00;96437.81;5061393;28;20518;-75
2022/05/16 04:08:49;;;;;;;10.20;6.70;;;;;;;10.18;100.00;96496.97;5056007;28;20472;-75
2022/05/16 04:11:17;;;;;;;8.23;6.80;;;;;;;10.23;100.00;96511.88;5070883;28;20491;-75
2022/05/16 04:13:44;;;;;;;8.33;6.23;;;;;;;10.04;100.00;96513.03;5069620;28;20483;-75
2022/05/16 04:16:11;;;;;;;11.73;7.50;;;;;;;9.62;100.00;96469.09;5052973;28;20991;-74
2022/05/16 04:18:39;;;;;;;9.73;6.37;;;;;;;10.20;100.00;96515.13;5070139;28;20478;-74
2022/05/16 04:21:05;;;;;;;7.70;6.80;;;;;;;10.01;100.00;96513.63;5071638;28;20808;-74
2022/05/16 04:23:32;;;;;;;8.53;6.50;;;;;;;10.13;100.00;96507.69;5069909;28;20986;-74
2022/05/16 04:25:59;;;;;;;6.90;6.30;;;;;;;10.14;100.00;96492.59;5078954;28;20475;-74
2022/05/16 04:28:26;;;;;;;7.20;6.50;;;;;;;10.32;100.00;96523.19;5071351;28;20818;-74
2022/05/16 04:30:52;;;;;;;8.43;6.83;;;;;;;10.21;100.00;96508.75;5087156;28;20563;-74
2022/05/16 04:33:19;;;;;;;7.60;6.70;;;;;;;10.15;100.00;96499.44;5070224;28;20551;-74
2022/05/16 04:35:46;;;;;;;9.37;6.20;;;;;;;10.24;100.00;96490.41;5070938;28;20503;-74
2022/05/16 04:38:13;;;;;;;6.40;6.00;;;;;;;10.90;100.00;96509.09;5069708;28;20448;-74
2022/05/16 04:43:26;;;;;;;13.50;6.47;;;;;;;11.43;100.00;96544.63;5070423;28;20443;-75
2022/05/16 04:45:52;;;;;;;9.77;8.77;;;;;;;11.11;100.00;96516.28;5069800;28;20516;-74
2022/05/16 04:48:19;;;;;;;12.23;7.57;;;;;;;10.69;100.00;96510.22;5053676;28;20451;-74
2022/05/16 04:50:46;;;;;;;12.73;6.77;;;;;;;10.77;100.00;96544.53;5069667;28;20468;-74
2022/05/16 04:53:13;;;;;;;8.57;7.40;;;;;;;10.58;100.00;96500.00;5070270;28;20432;-74
2022/05/16 04:55:39;;;;;;;14.80;7.80;;;;;;;10.72;100.00;96518.28;5073174;28;20459;-74
2022/05/16 04:58:06;;;;;;;9.17;7.47;;;;;;;10.89;100.00;96527.94;5043715;28;20943;-74
2022/05/16 05:00:32;;;;;;;10.13;7.40;;;;;;;11.00;100.00;96537.06;5073187;28;20482;-74
2022/05/16 05:02:59;;;;;;;8.60;6.97;;;;;;;11.15;100.00;96543.63;5086155;28;20425;-74
2022/05/16 05:05:26;;;;;;;7.47;6.53;;;;;;;11.15;100.00;96530.41;5086846;28;20510;-74
2022/05/16 05:07:52;;;;;;;7.50;6.80;;;;;;;11.24;100.00;96521.28;5077221;28;20432;-74
2022/05/16 05:16:04;;;;;;;15.87;8.00;;;;;;;11.92;100.00;96530.75;5060032;28;20464;-74
2022/05/16 05:18:31;;;;;;;12.77;8.03;;;;;;;12.25;100.00;96544.69;5072687;28;20817;-75
2022/05/16 05:20:58;;;;;;;18.70;7.93;;;;;;;12.17;100.00;96487.28;5072825;28;20448;-74
2022/05/16 05:23:25;;;;;;;9.87;8.23;;;;;;;12.42;100.00;96535.78;5074409;28;20982;-74
2022/05/16 05:25:52;;;;;;;15.30;8.27;;;;;;;12.54;100.00;96562.25;5063983;28;20780;-74
2022/05/16 05:28:18;;;;;;;11.57;8.03;;;;;;;12.53;100.00;96522.81;5051401;28;20440;-74
2022/05/16 05:30:46;;;;;;;12.13;8.00;;;;;;;12.97;100.00;96569.63;5072396;28;20462;-74
2022/05/16 05:33:12;;;;;;;11.07;7.47;;;;;;;13.38;100.00;96578.41;5085923;28;20542;-73
2022/05/16 05:35:39;;;;;;;10.33;7.07;;;;;;;13.61;100.00;96568.75;5072171;28;20552;-73
2022/05/16 05:38:06;;;;;;;12.27;7.70;;;;;;;13.70;100.00;96563.31;5072251;28;20437;-73
2022/05/16 05:40:32;;;;;;;11.83;7.37;;;;;;;14.12;100.00;96584.09;5073619;28;20477;-73
2022/05/16 05:43:08;;;;;;;16.30;7.37;;;;;;;14.22;100.00;96538.38;5072159;28;20523;-74
2022/05/16 05:45:36;;;;;;;10.67;6.50;;;;;;;14.45;100.00;96562.53;5072362;28;20469;-76
2022/05/16 05:48:04;;;;;;;12.43;7.70;;;;;;;14.57;100.00;96537.72;5072403;28;20955;-76
2022/05/16 05:50:31;;;;;;;9.70;6.53;;;;;;;15.13;100.00;96583.41;5088924;28;20425;-76
2022/05/16 05:52:58;;;;;;;14.33;9.00;;;;;;;15.33;100.00;96568.97;5072118;28;20427;-76
2022/05/16 05:55:25;;;;;;;9.87;7.03;;;;;;;15.89;100.00;96589.88;5071978;28;20476;-76
2022/05/16 05:57:53;;;;;;;12.20;6.87;;;;;;;15.86;100.00;96561.22;5071983;28;20472;-76
2022/05/16 06:00:19;;;;;;;9.00;5.80;;;;;;;16.23;100.00;96585.50;5071861;28;20446;-76
2022/05/16 06:02:46;;;;;;;11.43;6.47;;;;;;;16.23;100.00;96553.50;5071719;28;20463;-76
2022/05/16 06:05:20;;;;;;;7.47;5.77;;;;;;;16.28;100.00;96579.09;5054976;28;20931;-74
2022/05/16 06:07:47;;;;;;;10.60;6.40;;;;;;;15.90;100.00;96540.00;5071698;28;20448;-74
2022/05/16 06:10:14;;;;;;;7.70;5.30;;;;;;;16.15;100.00;96516.38;5071718;28;20515;-74
2022/05/16 06:12:41;;;;;;;8.53;5.60;;;;;;;16.58;100.00;96528.47;5051343;28;20527;-74
2022/05/16 06:15:09;;;;;;;8.83;5.40;;;;;;;17.28;96.83;96572.53;5071946;28;20519;-75
2022/05/16 06:17:36;;;;;;;7.93;5.20;;;;;;;16.96;97.36;96564.09;5071509;28;20562;-74
2022/05/16 06:20:05;;;;;;;14.67;6.83;;;;;;;17.04;94.85;96561.19;5071451;28;20536;-74
2022/05/16 06:22:34;;;;;;;8.33;4.73;;;;;;;17.24;93.37;96540.44;5054921;28;20568;-74
2022/05/16 06:27:54;;;;;;;8.40;5.63;;;;;;;18.06;87.33;96527.94;5072733;28;20419;-74
2022/05/16 06:30:22;;;;;;;7.13;5.43;;;;;;;17.67;86.46;96541.69;5073293;28;20444;-74
2022/05/16 06:32:49;;;;;;;6.33;4.47;;;;;;;17.18;87.32;96533.09;5059042;28;21009;-74
2022/05/16 06:35:16;;;;;;;5.23;4.60;;;;;;;17.87;86.17;96573.59;5071231;28;20468;-74
2022/05/16 06:37:44;;;;;;;6.13;4.37;;;;;;;17.90;85.41;96562.19;5071257;28;20464;-74
2022/05/16 06:40:13;;;;;;;5.63;4.33;;;;;;;17.97;83.63;96555.00;5071457;28;20544;-74
2022/05/16 06:42:40;;;;;;;7.63;5.10;;;;;;;18.47;82.54;96568.03;5072390;28;20491;-74
2022/05/16 06:45:08;;;;;;;7.67;4.50;;;;;;;18.83;81.89;96577.88;5074528;28;20448;-74
2022/05/16 06:47:35;;;;;;;15.93;4.87;;;;;;;18.50;79.50;96538.59;5070951;28;20539;-74
2022/05/16 06:50:03;;;;;;;8.77;5.10;;;;;;;18.44;80.61;96525.94;5087801;28;20480;-74
2022/05/16 06:52:30;;;;;;;5.83;5.13;;;;;;;18.71;78.78;96564.78;5070964;28;20820;-74
2022/05/16 06:54:56;;;;;;;7.20;5.90;;;;;;;18.26;78.15;96533.81;5070909;28;20475;-74
2022/05/16 06:57:23;;;;;;;5.13;4.63;;;;;;;18.52;79.42;96563.09;5071985;28;20567;-74
2022/05/16 06:59:49;;;;;;;11.20;5.17;;;;;;;18.15;79.47;96539.06;5070701;28;20531;-74
2022/05/16 07:02:16;;;;;;;9.37;4.33;;;;;;;18.25;79.22;96562.50;5070571;28;20544;-74
2022/05/16 07:04:43;;;;;;;6.23;4.80;;;;;;;18.19;80.65;96555.19;5079920;28;20428;-74
2022/05/16 07:07:09;;;;;;;5.73;4.30;;;;;;;18.34;80.08;96562.19;5089731;28;20535;-74
2022/05/16 07:09:38;;;;;;;6.67;6.07;;;;;;;18.31;79.63;96555.69;5050580;28;20528;-75
2022/05/16 07:12:07;;;;;;;10.87;5.10;;;;;;;18.29;79.82;96565.19;5065207;28;20472;-74
2022/05/16 07:14:35;;;;;;;6.20;4.23;;;;;;;18.11;81.22;96561.59;5070572;28;20551;-74
2022/05/16 07:17:01;;;;;;;8.67;4.90;;;;;;;18.13;81.99;96554.75;5069491;28;20856;-74
2022/05/16 07:19:31;;;;;;;15.27;5.63;;;;;;;18.44;79.59;96579.50;5080683;28;20476;-74
2022/05/16 07:21:58;;;;;;;7.37;5.20;;;;;;;18.95;79.85;96590.19;5075495;28;20960;-74
2022/05/16 07:24:25;;;;;;;7.33;4.57;;;;;;;19.13;78.30;96583.03;5053697;28;20536;-74
2022/05/16 07:29:37;;;;;;;7.50;5.23;;;;;;;19.64;76.29;96589.41;5071695;28;20515;-74
2022/05/16 07:32:04;;;;;;;6.17;4.73;;;;;;;19.61;75.85;96590.13;5071452;28;20448;-74
2022/05/16 07:34:31;;;;;;;8.33;5.37;;;;;;;19.43;73.39;96552.50;5082695;28;20535;-74
2022/05/16 07:36:57;;;;;;;7.10;4.60;;;;;;;19.89;73.32;96587.53;5070933;28;20475;-74
2022/05/16 07:39:24;;;;;;;7.10;4.77;;;;;;;19.69;70.37;96575.63;5066430;28;20473;-74
2022/05/16 07:41:54;;;;;;;9.13;5.07;;;;;;;19.83;71.06;96585.63;5090113;28;20890;-74
2022/05/16 07:44:20;;;;;;;8.53;4.90;;;;;;;20.03;70.93;96603.69;5060246;28;20530;-74
2022/05/16 07:46:47;;;;;;;4.90;4.00;;;;;;;20.11;70.05;96584.91;5056648;28;20494;-74
2022/05/16 07:49:14;;;;;;;7.73;5.53;;;;;;;20.30;69.74;96587.25;5069938;28;20524;-74
2022/05/16 07:51:41;;;;;;;7.93;4.60;;;;;;;20.91;69.48;96593.34;5069761;28;20547;-74
2022/05/16 07:54:08;;;;;;;9.57;4.83;;;;;;;20.99;66.31;96589.50;5070100;28;20770;-74
2022/05/16 07:56:35;;;;;;;6.57;5.10;;;;;;;21.08;66.88;96587.16;5069850;28;20753;-74
2022/05/16 07:59:02;;;;;;;6.03;3.93;;;;;;;21.49;66.50;96617.03;5069767;28;20494;-75
2022/05/16 08:01:29;;;;;;;6.87;4.50;;;;;;;21.74;64.21;96584.66;5071066;28;20799;-75
2022/05/16 08:03:56;;;;;;;8.10;4.60;;;;;;;21.79;66.44;96591.56;5069665;28;20459;-74
2022/05/16 08:06:27;;;;;;;6.10;5.50;;;;;;;22.31;64.97;96611.28;5069690;28;20437;-74
2022/05/16 08:11:39;;;;;;;6.20;4.53;;;;;;;21.68;64.03;96610.44;5069524;28;20470;-74
2022/05/16 08:14:06;;;;;;;6.97;5.37;;;;;;;21.71;64.17;96560.44;5089272;28;20522;-74
2022/05/16 08:16:33;;;;;;;7.50;4.80;;;;;;;21.32;63.91;96599.03;5072971;28;21053;-74
2022/05/16 08:19:00;;;;;;;7.03;4.00;;;;;;;21.30;63.93;96606.75;5064632;28;20495;-74
2022/05/16 08:21:26;;;;;;;10.70;5.70;;;;;;;21.31;64.74;96615.59;5077820;28;20988;-74
2022/05/16 08:23:53;;;;;;;9.30;4.83;;;;;;;21.84;64.15;96599.97;5086184;28;20978;-74
2022/05/16 08:26:20;;;;;;;7.10;4.47;;;;;;;22.52;61.11;96604.19;5069524;28;20524;-75
2022/05/16 08:28:46;;;;;;;6.80;4.63;;;;;;;22.65;61.90;96610.63;5085103;28;21011;-75
2022/05/16 08:31:13;;;;;;;9.83;4.93;;;;;;;23.03;63.16;96608.00;5073675;28;20444;-74
2022/05/16 08:33:41;;;;;;;6.10;4.47;;;;;;;22.83;58.42;96616.66;5073455;28;20441;-75
2022/05/16 08:41:42;;;;;;;5.90;4.07;;;;;;;21.86;62.32;96621.13;5074755;28;20882;-75
2022/05/16 08:44:27;;;;;;;7.13;3.83;;;;;;;22.03;62.07;96617.56;5073521;28;20523;-74
2022/05/16 08:47:00;;;;;;;8.90;4.33;;;;;;;22.15;61.74;96623.69;5060865;28;20424;-74
2022/05/16 08:49:41;;;;;;;6.27;4.50;;;;;;;22.10;62.40;96598.72;5073365;28;20440;-75
2022/05/16 08:52:17;;;;;;;6.37;4.10;;;;;;;21.86;61.84;96599.59;5073445;28;20479;-74
2022/05/16 08:54:49;;;;;;;10.40;5.10;;;;;;;22.06;61.51;96640.31;5074546;28;20767;-74
2022/05/16 08:57:28;;;;;;;6.63;4.93;;;;;;;21.93;63.13;96618.41;5073260;28;20547;-75
2022/05/16 09:00:02;;;;;;;6.10;5.27;;;;;;;22.25;62.59;96634.41;5060599;28;20527;-75
2022/05/16 09:02:30;;;;;;;4.70;3.90;;;;;;;22.26;62.92;96635.94;5055688;28;20876;-75
2022/05/16 09:05:07;;;;;;;6.83;5.53;;;;;;;22.37;61.63;96625.09;5074397;28;20428;-74
2022/05/16 09:07:42;;;;;;;6.13;4.60;;;;;;;22.18;61.99;96631.00;5057027;28;20523;-74
2022/05/16 09:10:22;;;;;;;5.47;4.27;;;;;;;22.50;61.35;96615.38;5056373;28;20847;-75
2022/05/16 09:13:06;;;;;;;3.80;3.50;;;;;;;22.66;60.11;96623.69;5076280;28;20580;-75
2022/05/16 09:15:51;;;;;;;7.63;5.03;;;;;;;23.10;58.67;96624.88;5089435;28;20511;-75
2022/05/16 09:19:15;;;;;;;4.60;3.27;;;;;;;22.96;57.63;96625.78;5072966;28;20464;-75
2022/05/16 09:22:09;;;;;;;4.40;4.00;;;;;;;22.97;57.35;96621.94;4992813;28;20550;-74
2022/05/16 09:24:55;;;;;;;7.47;4.10;;;;;;;22.66;56.38;96625.63;4992648;28;20869;-74
2022/05/16 09:30:20;;;;;;;6.37;4.43;;;;;;;23.17;56.41;96580.88;4995670;28;20439;-75
2022/05/16 09:32:56;;;;;;;12.10;4.13;;;;;;;23.43;57.24;96603.72;4995414;28;20447;-75
2022/05/16 09:35:31;;;;;;;5.43;4.00;;;;;;;23.63;56.55;96618.16;4995481;28;20462;-75
2022/05/16 09:37:58;;;;;;;6.20;3.77;;;;;;;23.70;55.91;96617.31;4995516;28;20493;-75
2022/05/16 09:40:34;;;;;;;16.20;5.00;;;;;;;23.61;54.40;96585.38;4994742;28;20439;-74
2022/05/16 09:43:14;;;;;;;9.07;4.43;;;;;;;23.95;55.49;96606.19;5011643;28;20905;-75
2022/05/16 09:45:46;;;;;;;6.43;3.40;;;;;;;24.07;54.60;96614.50;5011725;28;20493;-75
2022/05/16 09:48:23;;;;;;;4.63;3.50;;;;;;;24.17;52.33;96618.22;4995086;28;20441;-74
2022/05/16 09:51:02;;;;;;;11.10;3.93;;;;;;;24.40;51.70;96598.59;4995325;28;20482;-74
2022/05/16 09:53:44;;;;;;;6.43;3.50;;;;;;;24.81;51.86;96611.84;5089524;28;20425;-75
2022/05/16 09:56:32;;;;;;;5.27;3.87;;;;;;;24.98;52.72;96604.59;5072059;28;20436;-75
2022/05/16 09:59:00;;;;;;;6.00;3.50;;;;;;;24.97;51.02;96614.66;5073480;28;20943;-75
2022/05/16 10:01:40;;;;;;;4.27;3.60;;;;;;;25.19;51.13;96606.94;5084847;28;20554;-75
2022/05/16 10:04:13;;;;;;;7.90;3.80;;;;;;;25.08;51.49;96622.59;5071950;28;20563;-75
2022/05/16 10:06:44;;;;;;;6.57;4.33;;;;;;;24.90;51.11;96609.38;5088779;28;20447;-75
2022/05/16 10:09:14;;;;;;;5.33;3.60;;;;;;;24.97;50.28;96620.09;5072344;28;20431;-75
2022/05/16 10:11:51;;;;;;;6.60;3.80;;;;;;;24.83;49.84;96620.31;5084791;28;20467;-75
2022/05/16 10:14:18;;;;;;;5.13;4.17;;;;;;;24.73;50.19;96619.31;5091944;28;20434;-75
2022/05/16 10:16:49;;;;;;;7.63;3.70;;;;;;;25.21;50.80;96628.19;5074969;28;20616;-75
2022/05/16 10:19:19;;;;;;;4.17;3.77;;;;;;;24.79;48.48;96606.06;5085945;28;20444;-75
2022/05/16 10:22:10;;;;;;;5.97;3.60;;;;;;;25.00;49.78;96616.56;5073691;28;20543;-75
2022/05/16 10:24:49;;;;;;;3.87;3.33;;;;;;;24.95;49.47;96619.72;5080558;28;20511;-75
2022/05/16 10:27:21;;;;;;;6.80;3.87;;;;;;;25.26;49.28;96596.00;5071446;28;20527;-75
2022/05/16 10:29:51;;;;;;;4.07;3.10;;;;;;;25.81;49.58;96620.84;5072710;28;20460;-75
2022/05/16 10:35:26;;;;;;;2.93;2.73;;;;;;;25.39;46.42;96615.09;5085033;28;20527;-75
2022/05/16 10:37:54;;;;;;;6.20;4.07;;;;;;;25.41;47.43;96614.66;5088052;28;20465;-75
2022/05/16 10:40:39;;;;;;;4.00;3.53;;;;;;;25.67;49.17;96613.75;5071060;28;20523;-75
2022/05/16 10:43:25;;;;;;;6.60;3.63;;;;;;;25.77;47.55;96606.59;5071177;28;20515;-75
2022/05/16 10:45:57;;;;;;;4.80;3.50;;;;;;;25.90;47.81;96573.00;5071562;28;20513;-75
2022/05/16 10:48:48;;;;;;;5.20;3.30;;;;;;;26.41;46.76;96592.41;5071129;28;21003;-75
2022/05/16 10:51:18;;;;;;;5.30;3.70;;;;;;;26.65;46.97;96609.28;5070231;28;20465;-75
2022/05/16 10:54:01;;;;;;;3.73;3.33;;;;;;;26.55;46.85;96614.97;5070838;28;20429;-75
2022/05/16 10:56:56;;;;;;;6.43;3.80;;;;;;;26.83;46.24;96613.50;5070893;28;20464;-75
2022/05/16 10:59:36;;;;;;;6.10;3.50;;;;;;;26.15;46.79;96556.19;5084557;28;20979;-75
2022/05/16 11:02:22;;;;;;;4.30;3.90;;;;;;;26.59;50.58;96602.09;5087569;28;20589;-75
2022/05/16 11:05:04;;;;;;;4.10;3.27;;;;;;;26.59;46.61;96613.72;5072071;28;20417;-75
2022/05/16 11:07:53;;;;;;;4.63;3.60;;;;;;;26.30;47.38;96599.25;5071073;28;20950;-75
2022/05/16 11:10:39;;;;;;;4.73;3.20;;;;;;;25.93;48.14;96604.72;5070266;28;20547;-75
2022/05/16 11:13:36;;;;;;;4.30;3.80;;;;;;;25.68;49.10;96599.03;5080708;28;21059;-75
2022/05/16 11:16:12;;;;;;;4.90;3.60;;;;;;;25.41;49.34;96601.13;5059601;28;20424;-75
2022/05/16 11:18:48;;;;;;;7.43;4.33;;;;;;;25.26;49.07;96600.66;5070407;28;20502;-75
2022/05/16 11:21:34;;;;;;;7.70;4.10;;;;;;;25.25;50.33;96607.25;5070307;28;20460;-75
2022/05/16 11:24:10;;;;;;;8.23;3.87;;;;;;;25.03;50.42;96598.75;5070352;28;20523;-75
2022/05/16 11:26:49;;;;;;;7.17;4.10;;;;;;;23.99;51.53;96567.13;5070328;28;20515;-75
2022/05/16 11:29:28;;;;;;;5.53;3.80;;;;;;;24.66;52.78;96594.31;5070399;28;20920;-75
2022/05/16 11:32:00;;;;;;;7.23;4.00;;;;;;;24.99;51.09;96601.50;5071473;28;20527;-75
2022/05/16 11:34:55;;;;;;;18.03;5.90;;;;;;;24.99;49.22;96595.31;5071922;28;20489;-75
2022/05/16 11:37:28;;;;;;;6.13;4.07;;;;;;;24.93;48.90;96592.31;5070210;28;20909;-75
2022/05/16 11:40:07;;;;;;;4.20;3.20;;;;;;;24.88;49.16;96589.31;5074242;28;20420;-75
2022/05/16 11:42:55;;;;;;;4.00;3.30;;;;;;;24.42;50.24;96588.91;5091578;28;20561;-75
2022/05/16 11:45:48;;;;;;;5.67;3.47;;;;;;;24.13;51.15;96583.13;5083050;28;20417;-75
2022/05/16 11:48:52;;;;;;;5.23;3.63;;;;;;;24.34;52.06;96592.13;5069900;28;20879;-75
2022/05/16 11:51:53;;;;;;;3.60;3.30;;;;;;;24.41;51.17;96597.41;5070048;28;20443;-75
2022/05/16 11:54:25;;;;;;;6.57;4.20;;;;;;;24.24;51.48;96542.44;5086847;28;21248;-75
2022/05/16 12:02:28;;;;;;;4.50;3.53;;;;;;;24.58;52.21;96588.28;5075369;28;20498;-75
2022/05/16 12:05:01;;;;;;;10.50;4.37;;;;;;;24.26;51.91;96587.97;5069663;28;20480;-75
2022/05/16 12:07:46;;;;;;;4.40;3.50;;;;;;;24.29;52.53;96592.56;5069684;28;20456;-75
2022/05/16 12:10:15;;;;;;;6.43;3.70;;;;;;;23.78;52.58;96583.66;5069731;28;20479;-75
2022/05/16 12:12:46;;;;;;;3.83;3.43;;;;;;;23.53;53.04;96571.22;5069438;28;20583;-75
2022/05/16 12:15:29;;;;;;;5.70;3.70;;;;;;;23.50;53.62;96574.69;5070870;28;20523;-75
2022/05/16 12:18:06;;;;;;;5.13;3.37;;;;;;;23.28;53.85;96552.63;5049513;28;21012;-75
2022/05/16 12:20:42;;;;;;;6.13;3.90;;;;;;;23.46;54.09;96579.38;5074267;28;20443;-75
2022/05/16 12:23:11;;;;;;;4.07;3.57;;;;;;;23.58;53.85;96570.78;5091207;28;20466;-75
2022/05/16 12:25:41;;;;;;;6.87;3.57;;;;;;;23.53;52.58;96578.53;5082987;28;20424;-75
2022/05/16 12:28:17;;;;;;;4.30;4.00;;;;;;;23.61;52.81;96568.44;5069779;28;20847;-75